Kamp-Lintfort Airport

METAR EDLV TAF EDLV
7 °C
°C
-
°C
13m
Edad
02:33:11
LT
01:33
UTC
0 ft

2.000

4.000

6.000

8.000

10.000

SCT 3.600
BKN 4.900
OVC 6.500
VFR
<?= Yii::t('app', 'Wind direction') ?> <?= Yii::t('app', 'of'); ?>
300°
08:09
Amanecer
87%
Humedad
Cizalladura del viento
Cerrado/Nieve
Alcance visual RWY
Estado de la RWY
Visibilidad vert.
Visibilidad mínima
CAVOK
Tendencia
Corrección
Informe especial
1032 hPa
QNH
METAR EDLV 040120Z AUTO 30005KT 9999 // SCT036/// BKN049/// OVC065/// 07/05 Q1032
Cubierto
4 kt
4 kt
02:00
MVFR
7 kt
03:00
IFR
7 kt
04:00
IFR
7 kt
05:00
IFR
7 kt
06:00
IFR
3 kt
07:00
MVFR
3 kt
08:00
MVFR
3 kt
10 km+
Visibilidad
4.900 ft
Cielo nuboso
5 kt
Viento
metar-taf.com/EDLC

Metar-Taf.com

Decodificador visual

Nosotros y terceros seguimos tu comportamiento en Internet en nuestro sitio web con cookies. Si continúas, asumimos que estás de acuerdo con nuestra Política de cookies.